Time;durP1;ratioP1;P1;durP2;ratioP2;P2;SDS_P1;SDS_P2;PMS_P1;PMS_P2;Temp;Humidity;BMP_temperature;BMP_pressure;BME280_temperature;BME280_humidity;BME280_pressure;Samples;Min_cycle;Max_cycle;Signal;HPM_P1;HPM_P2
2021/04/09 00:01:59;;;;;;;8.23;5.75;;;6.60;56.00;;;;;;4972048;28;20022;-90
2021/04/09 00:04:25;;;;;;;16.58;8.88;;;6.60;56.00;;;;;;4967216;28;20034;-92
2021/04/09 00:06:51;;;;;;;10.93;6.88;;;6.60;56.20;;;;;;4973240;28;20117;-92
2021/04/09 00:09:17;;;;;;;10.23;7.13;;;6.60;56.20;;;;;;4972505;28;20034;-91
2021/04/09 00:11:43;;;;;;;11.40;7.80;;;6.60;56.20;;;;;;4970057;28;20035;-90
2021/04/09 00:14:14;;;;;;;9.15;6.95;;;6.60;56.20;;;;;;4981381;28;20034;-90
2021/04/09 00:16:40;;;;;;;11.00;7.88;;;6.60;56.30;;;;;;4974148;28;20032;-90
2021/04/09 00:19:08;;;;;;;12.90;8.18;;;6.60;56.30;;;;;;4970497;28;20019;-92
2021/04/09 00:21:33;;;;;;;9.27;6.45;;;6.50;56.40;;;;;;4969228;28;20045;-91
2021/04/09 00:23:59;;;;;;;15.05;7.80;;;6.60;56.30;;;;;;4961986;28;20023;-90
2021/04/09 00:26:27;;;;;;;9.07;6.70;;;6.60;56.40;;;;;;4961227;28;20041;-90
2021/04/09 00:28:52;;;;;;;11.07;8.52;;;6.60;56.40;;;;;;4973969;28;20766;-91
2021/04/09 00:31:18;;;;;;;12.20;8.38;;;6.60;56.50;;;;;;4975005;28;20033;-91
2021/04/09 00:33:43;;;;;;;8.60;6.32;;;6.50;56.50;;;;;;4974020;28;20026;-90
2021/04/09 00:36:09;;;;;;;10.95;7.32;;;6.50;56.60;;;;;;4967354;28;20041;-91
2021/04/09 00:38:34;;;;;;;9.50;6.88;;;6.50;56.50;;;;;;4980536;28;20126;-91
2021/04/09 00:41:00;;;;;;;13.52;8.93;;;6.50;56.50;;;;;;4974269;28;20069;-91
2021/04/09 00:43:26;;;;;;;16.90;9.57;;;6.50;56.60;;;;;;4969725;28;20034;-91
2021/04/09 00:45:51;;;;;;;13.07;8.02;;;6.40;56.70;;;;;;4974358;28;20027;-90
2021/04/09 00:48:17;;;;;;;9.02;6.45;;;6.40;56.80;;;;;;4978026;28;20421;-91
2021/04/09 00:50:42;;;;;;;13.98;9.07;;;6.40;56.80;;;;;;4969977;28;20114;-89
2021/04/09 00:53:11;;;;;;;10.48;7.00;;;6.40;57.00;;;;;;4977078;28;20041;-89
2021/04/09 00:55:37;;;;;;;11.85;8.95;;;6.40;57.00;;;;;;4970686;28;20037;-89
2021/04/09 00:58:05;;;;;;;10.90;7.68;;;6.30;57.00;;;;;;4970854;28;20034;-89
2021/04/09 01:00:31;;;;;;;10.32;6.00;;;6.30;57.10;;;;;;4975471;28;20177;-91
2021/04/09 01:02:58;;;;;;;8.75;6.03;;;6.40;57.20;;;;;;4953552;28;20062;-90
2021/04/09 01:05:23;;;;;;;10.63;6.53;;;6.40;57.10;;;;;;4955620;28;20031;-91
2021/04/09 01:07:49;;;;;;;12.40;6.60;;;6.40;57.10;;;;;;4973440;28;20034;-91
2021/04/09 01:10:17;;;;;;;8.63;5.97;;;6.40;57.10;;;;;;4975447;28;20031;-90
2021/04/09 01:12:44;;;;;;;11.80;8.07;;;6.40;57.10;;;;;;4976775;28;20015;-89
2021/04/09 01:15:11;;;;;;;12.88;8.15;;;6.40;57.20;;;;;;4962929;28;20027;-90
2021/04/09 01:18:04;;;;;;;10.82;7.43;;;6.40;57.30;;;;;;4976683;28;20044;-89
2021/04/09 01:20:49;;;;;;;12.70;9.73;;;6.40;57.30;;;;;;4980402;28;20055;-90
2021/04/09 01:23:52;;;;;;;13.93;9.23;;;6.30;57.40;;;;;;4970104;28;20678;-90
2021/04/09 01:26:56;;;;;;;12.90;7.68;;;6.30;57.60;;;;;;4981576;28;20035;-89
2021/04/09 01:29:48;;;;;;;13.43;8.75;;;6.20;57.80;;;;;;4974381;28;20031;-91
2021/04/09 01:32:14;;;;;;;12.15;7.95;;;6.20;57.90;;;;;;4963651;28;20034;-90
2021/04/09 01:34:43;;;;;;;11.82;7.07;;;6.20;58.00;;;;;;4986455;28;20070;-91
2021/04/09 01:37:25;;;;;;;10.38;7.05;;;6.20;57.90;;;;;;4975908;28;20101;-92
2021/04/09 01:40:12;;;;;;;11.15;8.55;;;6.20;58.00;;;;;;4980667;28;20023;-91
2021/04/09 01:42:40;;;;;;;8.65;6.30;;;6.20;58.00;;;;;;4976632;28;20035;-91
2021/04/09 01:45:08;;;;;;;10.93;6.82;;;6.20;58.10;;;;;;4976568;28;20113;-91
2021/04/09 01:47:36;;;;;;;11.82;7.93;;;6.20;58.10;;;;;;4973091;28;20038;-90
2021/04/09 01:50:04;;;;;;;11.07;7.47;;;6.30;58.10;;;;;;4973865;28;20026;-91
2021/04/09 01:52:33;;;;;;;11.75;7.82;;;6.30;58.20;;;;;;4975097;28;20026;-89
2021/04/09 01:55:01;;;;;;;11.85;8.55;;;6.30;58.30;;;;;;4965678;28;20039;-89
2021/04/09 01:57:28;;;;;;;11.93;8.48;;;6.20;58.40;;;;;;4962449;28;20143;-89
2021/04/09 01:59:55;;;;;;;8.82;6.25;;;6.20;58.50;;;;;;4970155;28;20440;-89
2021/04/09 02:02:21;;;;;;;10.65;6.95;;;6.20;58.40;;;;;;4977966;28;20114;-89
2021/04/09 02:04:48;;;;;;;11.48;7.22;;;6.30;58.50;;;;;;4975776;28;20035;-89
2021/04/09 02:07:20;;;;;;;9.93;6.25;;;6.30;58.40;;;;;;4981715;28;20552;-91
2021/04/09 02:09:47;;;;;;;11.10;7.82;;;6.30;58.40;;;;;;4977814;28;20418;-92
2021/04/09 02:12:14;;;;;;;8.85;6.35;;;6.30;58.40;;;;;;4977179;28;20015;-91
2021/04/09 02:14:42;;;;;;;8.07;5.70;;;6.30;58.50;;;;;;4975868;28;20042;-91
2021/04/09 02:17:09;;;;;;;9.25;5.95;;;6.30;58.40;;;;;;4975174;28;20397;-89
2021/04/09 02:19:36;;;;;;;10.32;5.82;;;6.30;58.50;;;;;;4975724;28;20019;-91
2021/04/09 02:22:02;;;;;;;14.63;7.22;;;6.30;58.60;;;;;;4974500;28;20485;-91
2021/04/09 02:24:28;;;;;;;7.38;5.03;;;6.30;58.60;;;;;;4981341;28;20026;-91
2021/04/09 02:26:55;;;;;;;9.02;6.53;;;6.30;58.60;;;;;;4973308;28;20090;-90
2021/04/09 02:29:21;;;;;;;9.60;6.60;;;6.40;58.60;;;;;;4975420;28;20051;-90
2021/04/09 02:31:48;;;;;;;7.60;5.88;;;6.30;58.60;;;;;;4958327;28;20666;-90
2021/04/09 02:34:14;;;;;;;11.20;7.90;;;6.30;58.50;;;;;;4968352;28;20027;-89
2021/04/09 02:36:43;;;;;;;7.63;5.55;;;6.40;58.60;;;;;;4955536;28;20463;-89
2021/04/09 02:39:14;;;;;;;11.52;7.68;;;6.30;58.60;;;;;;4958674;28;20019;-89
2021/04/09 02:41:55;;;;;;;14.07;8.68;;;6.30;58.60;;;;;;4972073;28;20105;-90
2021/04/09 02:44:21;;;;;;;11.13;7.35;;;6.30;58.80;;;;;;4975578;28;20026;-90
2021/04/09 02:46:53;;;;;;;10.88;7.63;;;6.30;58.70;;;;;;4978712;28;20118;-90
2021/04/09 02:49:26;;;;;;;11.60;7.43;;;6.30;58.80;;;;;;4967987;28;20026;-91
2021/04/09 02:51:54;;;;;;;12.98;8.23;;;6.30;58.80;;;;;;4978274;28;20033;-91
2021/04/09 02:54:20;;;;;;;10.35;6.57;;;6.30;58.90;;;;;;4973330;28;20126;-91
2021/04/09 02:56:47;;;;;;;11.23;7.20;;;6.30;58.90;;;;;;4982165;28;20098;-90
2021/04/09 02:59:14;;;;;;;10.25;6.90;;;6.30;59.10;;;;;;4978802;28;20034;-90
2021/04/09 03:01:42;;;;;;;11.38;7.63;;;6.30;59.10;;;;;;4977850;28;20027;-89
2021/04/09 03:04:09;;;;;;;13.60;8.52;;;6.30;59.00;;;;;;4981657;28;20572;-90
2021/04/09 03:06:41;;;;;;;11.60;8.32;;;6.30;59.00;;;;;;4985057;28;20528;-89
2021/04/09 03:09:10;;;;;;;11.18;6.68;;;6.30;59.10;;;;;;4974606;28;20027;-90
2021/04/09 03:11:37;;;;;;;10.82;7.53;;;6.30;59.10;;;;;;4973305;28;20025;-92
2021/04/09 03:14:03;;;;;;;10.15;6.22;;;6.30;59.10;;;;;;4973272;28;20035;-88
2021/04/09 03:16:43;;;;;;;12.93;8.18;;;6.30;59.10;;;;;;4977435;28;20034;-88
2021/04/09 03:19:10;;;;;;;16.35;9.60;;;6.30;59.30;;;;;;4973664;28;20070;-89
2021/04/09 03:21:36;;;;;;;18.15;11.05;;;6.30;59.40;;;;;;4972462;28;20027;-93
2021/04/09 03:24:02;;;;;;;15.68;9.50;;;6.30;59.50;;;;;;4975735;28;20106;-89
2021/04/09 03:26:27;;;;;;;15.60;10.27;;;6.30;59.60;;;;;;4973320;28;20736;-89
2021/04/09 03:28:53;;;;;;;13.55;8.55;;;6.20;59.70;;;;;;4976843;28;20026;-96
2021/04/09 03:31:19;;;;;;;10.40;6.88;;;6.20;59.80;;;;;;4962288;28;20102;-90
2021/04/09 03:33:44;;;;;;;12.32;8.35;;;6.30;59.90;;;;;;4966584;28;20029;-93
2021/04/09 03:36:10;;;;;;;10.35;6.90;;;6.30;59.90;;;;;;4969692;28;20034;-93
2021/04/09 03:38:35;;;;;;;15.00;9.05;;;6.30;59.90;;;;;;4972580;28;20043;-92
2021/04/09 03:41:01;;;;;;;13.98;9.43;;;6.30;60.00;;;;;;4972929;28;20057;-92
2021/04/09 03:43:26;;;;;;;16.92;10.40;;;6.30;60.20;;;;;;4969166;28;20031;-93
2021/04/09 03:45:52;;;;;;;17.15;9.25;;;6.20;60.30;;;;;;4975566;28;20027;-92
2021/04/09 03:48:17;;;;;;;12.75;8.98;;;6.20;60.30;;;;;;4962620;28;20027;-92
2021/04/09 03:50:43;;;;;;;16.40;10.63;;;6.20;60.30;;;;;;4978135;28;20496;-92
2021/04/09 03:53:09;;;;;;;15.35;9.77;;;6.20;60.50;;;;;;4971418;28;20441;-92
2021/04/09 03:55:34;;;;;;;14.50;9.68;;;6.20;60.70;;;;;;4979400;28;20029;-92
2021/04/09 03:58:00;;;;;;;12.05;8.35;;;6.20;60.60;;;;;;4975565;28;20497;-92
2021/04/09 04:00:26;;;;;;;13.65;8.00;;;6.20;60.80;;;;;;4973410;28;20026;-93
2021/04/09 04:02:53;;;;;;;10.07;6.38;;;6.20;60.80;;;;;;4974201;28;20031;-93
2021/04/09 04:05:19;;;;;;;12.77;8.38;;;6.20;60.80;;;;;;4972182;28;20054;-93
2021/04/09 04:07:45;;;;;;;8.27;6.28;;;6.20;60.80;;;;;;4974211;28;20600;-92
2021/04/09 04:10:11;;;;;;;15.23;8.95;;;6.20;60.80;;;;;;4974160;28;20066;-91
2021/04/09 04:12:38;;;;;;;9.05;6.22;;;6.20;60.90;;;;;;4974401;28;20478;-92
2021/04/09 04:15:05;;;;;;;9.45;6.47;;;6.20;60.80;;;;;;4969352;28;20033;-92
2021/04/09 04:17:30;;;;;;;11.30;6.97;;;6.30;60.80;;;;;;4975182;28;20054;-91
2021/04/09 04:19:56;;;;;;;10.98;7.15;;;6.20;60.70;;;;;;4977801;28;20027;-93
2021/04/09 04:22:23;;;;;;;10.52;6.40;;;6.30;60.70;;;;;;4971153;28;20027;-94
2021/04/09 04:24:48;;;;;;;10.02;6.57;;;6.20;60.80;;;;;;4973945;28;20034;-94
2021/04/09 04:27:14;;;;;;;13.30;8.35;;;6.30;60.80;;;;;;4968533;28;20027;-93
2021/04/09 04:29:39;;;;;;;11.38;7.43;;;6.30;60.80;;;;;;4978168;28;20027;-92
2021/04/09 04:32:05;;;;;;;9.60;5.80;;;6.20;60.90;;;;;;4973985;28;20031;-92
2021/04/09 04:34:31;;;;;;;9.35;6.00;;;6.30;60.90;;;;;;4973925;28;20026;-92
2021/04/09 04:36:56;;;;;;;10.50;6.10;;;6.30;60.90;;;;;;4984511;28;20088;-92
2021/04/09 04:39:22;;;;;;;10.02;6.38;;;6.30;60.90;;;;;;4973699;28;20035;-94
2021/04/09 04:41:48;;;;;;;10.43;5.20;;;6.20;60.90;;;;;;4987581;28;20097;-93
2021/04/09 04:44:14;;;;;;;7.05;4.50;;;6.20;60.90;;;;;;4975417;28;20086;-96
2021/04/09 04:46:40;;;;;;;9.60;6.32;;;6.30;60.90;;;;;;4980227;28;20049;-92
2021/04/09 04:49:06;;;;;;;8.50;5.20;;;6.20;60.80;;;;;;4973834;28;20114;-93
2021/04/09 04:51:33;;;;;;;8.40;5.75;;;6.30;60.80;;;;;;4977450;28;20019;-92
2021/04/09 04:53:59;;;;;;;9.23;5.88;;;6.30;60.90;;;;;;4976958;28;20035;-91
2021/04/09 04:56:24;;;;;;;8.68;5.68;;;6.30;61.00;;;;;;4976427;28;20049;-89
2021/04/09 04:58:50;;;;;;;9.68;7.07;;;6.30;61.00;;;;;;4980800;28;20105;-92
2021/04/09 05:01:15;;;;;;;11.15;7.00;;;6.30;61.10;;;;;;4981125;28;20026;-92
2021/04/09 05:03:44;;;;;;;10.95;6.72;;;6.20;61.00;;;;;;4982176;28;20019;-91
2021/04/09 05:06:10;;;;;;;16.40;10.20;;;6.20;61.10;;;;;;4976456;28;20470;-93
2021/04/09 05:08:35;;;;;;;9.75;6.53;;;6.20;61.20;;;;;;4978058;28;20110;-93
2021/04/09 05:11:01;;;;;;;9.07;6.43;;;6.20;61.10;;;;;;4975320;28;20103;-94
2021/04/09 05:13:26;;;;;;;10.48;7.65;;;6.20;61.20;;;;;;4977666;28;20474;-95
2021/04/09 05:15:52;;;;;;;10.32;6.82;;;6.20;61.10;;;;;;4977683;28;21157;-95
2021/04/09 05:18:18;;;;;;;12.45;8.90;;;6.20;61.10;;;;;;4978837;28;20467;-93
2021/04/09 05:20:45;;;;;;;11.27;7.05;;;6.30;61.20;;;;;;4981782;28;20102;-96
2021/04/09 05:23:11;;;;;;;7.78;5.43;;;6.20;61.30;;;;;;4970564;28;20035;-91
2021/04/09 05:25:37;;;;;;;8.07;5.45;;;6.20;61.20;;;;;;4980673;28;20527;-94
2021/04/09 05:28:03;;;;;;;9.65;7.20;;;6.30;62.00;;;;;;4988136;28;20023;-94
2021/04/09 05:30:28;;;;;;;10.63;6.30;;;6.30;61.30;;;;;;4981857;28;20030;-94
2021/04/09 05:33:03;;;;;;;11.48;7.95;;;6.30;61.30;;;;;;4982713;28;20029;-95
2021/04/09 05:35:29;;;;;;;12.68;7.78;;;6.30;61.40;;;;;;4981946;28;20070;-95
2021/04/09 05:37:54;;;;;;;10.60;7.60;;;6.30;61.50;;;;;;4982431;28;20039;-94
2021/04/09 05:40:21;;;;;;;12.20;7.25;;;6.30;61.40;;;;;;4983511;28;20033;-91
2021/04/09 05:42:59;;;;;;;12.82;9.13;;;6.30;61.20;;;;;;4982622;28;20035;-93
2021/04/09 05:45:32;;;;;;;11.38;7.60;;;6.40;61.30;;;;;;4973744;28;20027;-96
2021/04/09 05:48:03;;;;;;;9.55;6.85;;;6.50;61.20;;;;;;4976929;28;20031;-93
2021/04/09 05:50:29;;;;;;;8.95;6.63;;;6.60;60.90;;;;;;4984176;28;20122;-94
2021/04/09 05:52:55;;;;;;;13.30;6.65;;;6.80;60.60;;;;;;4981597;28;20043;-93
2021/04/09 05:55:20;;;;;;;9.55;6.07;;;7.00;60.30;;;;;;4976657;28;20030;-93
2021/04/09 05:57:47;;;;;;;8.90;6.35;;;7.20;59.80;;;;;;4976027;28;20066;-92
2021/04/09 06:00:13;;;;;;;9.73;5.57;;;7.30;59.40;;;;;;4972343;28;20058;-91
2021/04/09 06:02:39;;;;;;;12.63;7.97;;;7.70;59.10;;;;;;4982253;28;20019;-87
2021/04/09 06:05:06;;;;;;;11.30;7.55;;;8.10;58.00;;;;;;4979681;28;20355;-86
2021/04/09 06:07:32;;;;;;;10.75;6.65;;;8.60;57.10;;;;;;4971330;28;20078;-88
2021/04/09 06:09:58;;;;;;;9.40;6.50;;;9.00;56.10;;;;;;4980519;28;20095;-87
2021/04/09 06:12:24;;;;;;;11.50;8.40;;;9.10;55.30;;;;;;4976523;28;20031;-89
2021/04/09 06:14:52;;;;;;;9.75;6.45;;;9.50;55.10;;;;;;4973770;28;20057;-85
2021/04/09 06:17:18;;;;;;;10.07;7.32;;;9.90;53.60;;;;;;4971612;28;20042;-89
2021/04/09 06:19:43;;;;;;;11.35;7.05;;;10.00;53.00;;;;;;4973020;28;20478;-89
2021/04/09 06:22:09;;;;;;;10.13;6.35;;;10.50;52.30;;;;;;4975137;28;20077;-89
2021/04/09 06:24:37;;;;;;;9.32;5.72;;;10.90;51.60;;;;;;4973843;28;20074;-89
2021/04/09 06:27:04;;;;;;;7.68;5.65;;;11.20;51.20;;;;;;4975364;28;20086;-89
2021/04/09 06:29:29;;;;;;;7.32;5.18;;;11.80;50.30;;;;;;4974661;28;20545;-88
2021/04/09 06:31:55;;;;;;;13.50;8.77;;;12.20;49.30;;;;;;4977340;28;20061;-89
2021/04/09 06:34:21;;;;;;;9.02;6.15;;;12.20;48.10;;;;;;4976268;28;20054;-89
2021/04/09 06:36:47;;;;;;;10.93;6.70;;;11.90;48.30;;;;;;4977496;28;20035;-89
2021/04/09 06:39:12;;;;;;;9.82;5.65;;;11.60;48.50;;;;;;4977836;28;20070;-87
2021/04/09 06:41:39;;;;;;;7.30;5.70;;;11.00;49.50;;;;;;4975077;28;20027;-90
2021/04/09 06:44:05;;;;;;;8.30;5.60;;;10.50;50.60;;;;;;4975675;28;20034;-91
2021/04/09 06:46:37;;;;;;;7.15;5.40;;;10.30;51.50;;;;;;4971161;28;20047;-91
2021/04/09 06:49:04;;;;;;;9.10;6.20;;;10.00;52.20;;;;;;4973261;28;20022;-94
2021/04/09 06:51:30;;;;;;;7.03;5.40;;;9.80;52.60;;;;;;4971620;28;20093;-91
2021/04/09 06:53:57;;;;;;;11.13;7.53;;;9.50;53.10;;;;;;4971237;28;20071;-91
2021/04/09 06:56:23;;;;;;;8.40;5.63;;;9.40;53.60;;;;;;4973107;28;20030;-89
2021/04/09 06:58:50;;;;;;;9.48;5.70;;;9.40;53.90;;;;;;4972292;28;20047;-89
2021/04/09 07:01:18;;;;;;;7.22;5.22;;;9.20;54.10;;;;;;4978165;28;20023;-89
2021/04/09 07:03:44;;;;;;;11.52;7.72;;;9.00;54.50;;;;;;4978991;28;20497;-90
2021/04/09 07:06:09;;;;;;;11.35;7.10;;;8.90;55.00;;;;;;4988548;28;20037;-90
2021/04/09 07:08:42;;;;;;;11.68;8.57;;;8.70;55.40;;;;;;4977630;28;20027;-91
2021/04/09 07:11:08;;;;;;;8.25;5.90;;;8.60;55.90;;;;;;4978826;28;20038;-90
2021/04/09 07:13:58;;;;;;;10.02;7.10;;;8.50;56.30;;;;;;4983782;28;20110;-92
2021/04/09 07:16:23;;;;;;;7.07;5.43;;;8.50;56.50;;;;;;4977902;28;20089;-93
2021/04/09 07:19:03;;;;;;;7.20;5.68;;;8.40;56.80;;;;;;4989206;28;20724;-90
2021/04/09 07:21:32;;;;;;;9.20;6.60;;;8.30;57.10;;;;;;4979686;28;20023;-92
2021/04/09 07:24:13;;;;;;;11.52;6.38;;;8.30;57.30;;;;;;4976890;28;20146;-89
2021/04/09 07:26:58;;;;;;;55.50;10.57;;;8.40;57.30;;;;;;4969373;28;20042;-89
2021/04/09 07:29:31;;;;;;;9.45;5.78;;;8.50;58.00;;;;;;4971534;28;20169;-88
2021/04/09 07:32:14;;;;;;;5.90;4.70;;;8.90;57.30;;;;;;4976118;28;20128;-87
2021/04/09 07:34:51;;;;;;;10.27;5.82;;;9.80;55.70;;;;;;4972135;28;20029;-89
2021/04/09 07:37:17;;;;;;;10.88;6.75;;;10.30;54.40;;;;;;4976787;28;20417;-87
2021/04/09 07:39:43;;;;;;;5.93;4.97;;;10.30;54.00;;;;;;4971844;28;20019;-88
2021/04/09 07:42:11;;;;;;;7.15;5.13;;;10.20;54.20;;;;;;4971250;28;20026;-87
2021/04/09 07:44:38;;;;;;;8.13;5.45;;;10.20;54.40;;;;;;4970575;28;20048;-86
2021/04/09 07:47:11;;;;;;;7.93;6.00;;;10.10;54.70;;;;;;4978840;28;20082;-88
2021/04/09 07:49:37;;;;;;;9.15;5.65;;;10.10;55.00;;;;;;4976092;28;20030;-87
2021/04/09 07:52:15;;;;;;;7.72;5.97;;;10.60;54.30;;;;;;4972439;28;20019;-90
2021/04/09 07:54:41;;;;;;;8.48;5.28;;;10.40;54.30;;;;;;4975357;28;20022;-89
2021/04/09 07:57:07;;;;;;;9.10;5.95;;;10.30;54.50;;;;;;4971336;28;20390;-89
2021/04/09 07:59:36;;;;;;;7.18;5.13;;;10.40;54.50;;;;;;4978661;28;20022;-92
2021/04/09 08:02:04;;;;;;;6.57;5.00;;;10.60;54.20;;;;;;4974909;28;20038;-90
2021/04/09 08:04:40;;;;;;;7.70;4.97;;;10.60;54.00;;;;;;4979487;28;20122;-93
2021/04/09 08:07:07;;;;;;;7.38;5.03;;;10.60;54.30;;;;;;4979676;28;20109;-92
2021/04/09 08:09:51;;;;;;;7.47;4.82;;;10.80;54.20;;;;;;4977083;28;20168;-90
2021/04/09 08:12:28;;;;;;;8.32;6.38;;;10.80;54.00;;;;;;4975040;28;20057;-91
2021/04/09 08:14:55;;;;;;;8.00;4.95;;;10.70;54.30;;;;;;4976753;28;20117;-93
2021/04/09 08:17:22;;;;;;;7.60;4.80;;;10.60;54.70;;;;;;4978687;28;20045;-91
2021/04/09 08:19:55;;;;;;;5.80;4.80;;;10.60;55.00;;;;;;4979861;28;20117;-92
2021/04/09 08:22:22;;;;;;;6.35;4.78;;;10.50;55.20;;;;;;4972720;28;20037;-92
2021/04/09 08:24:48;;;;;;;7.60;5.43;;;10.50;55.40;;;;;;4966492;28;20058;-91
2021/04/09 08:27:14;;;;;;;8.45;5.75;;;10.40;55.60;;;;;;4977165;28;20057;-91
2021/04/09 08:29:42;;;;;;;7.32;4.72;;;10.30;55.80;;;;;;4977026;28;20042;-91
2021/04/09 08:32:15;;;;;;;7.47;4.30;;;10.30;56.00;;;;;;4974459;28;20073;-90
2021/04/09 08:34:41;;;;;;;;;;;10.40;56.00;;;;;;4972892;28;20035;-90
2021/04/09 08:37:06;;;;;;;10.40;5.70;;;10.40;56.00;;;;;;4970216;28;20009;-91
2021/04/09 08:39:32;;;;;;;8.93;4.93;;;10.40;56.20;;;;;;4972572;28;20037;-92
2021/04/09 08:41:58;;;;;;;6.43;4.85;;;10.60;56.00;;;;;;4975860;28;20034;-91
2021/04/09 08:44:24;;;;;;;6.60;4.20;;;10.60;55.90;;;;;;4974371;28;20127;-90
2021/04/09 08:46:49;;;;;;;6.82;4.45;;;10.70;55.80;;;;;;4978963;28;20102;-90
2021/04/09 08:49:16;;;;;;;6.80;4.32;;;10.80;55.60;;;;;;4971860;28;20170;-91
2021/04/09 08:51:43;;;;;;;5.65;4.20;;;10.90;55.50;;;;;;4977587;28;20050;-91
2021/04/09 08:54:23;;;;;;;8.98;5.05;;;11.10;55.40;;;;;;4976347;28;20027;-89
2021/04/09 08:56:50;;;;;;;8.57;5.90;;;11.30;55.20;;;;;;4968998;28;20034;-87
2021/04/09 08:59:39;;;;;;;8.75;6.20;;;11.40;54.70;;;;;;4976230;28;20049;-89
2021/04/09 09:02:21;;;;;;;8.02;5.25;;;11.40;54.60;;;;;;4969578;28;20023;-90
2021/04/09 09:05:03;;;;;;;6.93;4.25;;;11.50;54.60;;;;;;4971929;28;20053;-86
2021/04/09 09:07:57;;;;;;;8.40;5.27;;;11.60;54.50;;;;;;4978023;28;20038;-91
2021/04/09 09:10:30;;;;;;;6.07;4.93;;;11.70;54.40;;;;;;4971265;28;20062;-92
2021/04/09 09:13:05;;;;;;;8.20;5.68;;;11.70;54.30;;;;;;4974148;28;20110;-94
2021/04/09 09:15:42;;;;;;;7.22;5.63;;;11.70;54.30;;;;;;4972076;28;20695;-90
2021/04/09 09:18:25;;;;;;;9.02;4.53;;;11.60;54.30;;;;;;4972600;28;20069;-89
2021/04/09 09:21:13;;;;;;;10.98;4.85;;;11.70;54.40;;;;;;4972656;28;20039;-92
2021/04/09 09:23:57;;;;;;;7.10;4.80;;;11.70;54.40;;;;;;4976910;28;20397;-91
2021/04/09 09:26:42;;;;;;;6.80;4.03;;;11.80;54.30;;;;;;4973795;28;20051;-91
2021/04/09 09:29:25;;;;;;;7.43;4.55;;;11.80;54.80;;;;;;4976285;28;20046;-91
2021/04/09 09:32:00;;;;;;;8.00;5.45;;;11.80;54.10;;;;;;4978347;28;20022;-90
2021/04/09 09:34:32;;;;;;;5.45;4.07;;;11.80;53.90;;;;;;4976808;28;20070;-90
2021/04/09 09:37:34;;;;;;;8.05;4.72;;;11.80;54.00;;;;;;4976363;28;20076;-89
2021/04/09 09:40:06;;;;;;;8.35;5.13;;;12.00;54.10;;;;;;4981771;28;20034;-91
2021/04/09 09:42:34;;;;;;;9.68;5.15;;;12.20;53.80;;;;;;4978037;28;20146;-89
2021/04/09 09:45:01;;;;;;;7.00;5.13;;;12.10;53.60;;;;;;4982579;28;20058;-92
2021/04/09 09:47:41;;;;;;;7.80;5.10;;;12.20;53.70;;;;;;4979140;28;20569;-90
2021/04/09 09:50:21;;;;;;;7.53;4.75;;;12.30;53.70;;;;;;4974558;28;20105;-92
2021/04/09 09:53:07;;;;;;;6.75;5.10;;;12.40;53.70;;;;;;4980977;28;20088;-91
2021/04/09 09:55:36;;;;;;;6.70;5.15;;;12.40;53.40;;;;;;4976255;28;20046;-91
2021/04/09 09:58:10;;;;;;;7.93;5.80;;;12.50;53.10;;;;;;4985553;28;20045;-92
2021/04/09 10:00:41;;;;;;;6.43;3.70;;;12.50;52.30;;;;;;4978799;28;20114;-92
2021/04/09 10:03:14;;;;;;;6.53;4.80;;;12.60;52.60;;;;;;4971522;28;20043;-93
2021/04/09 10:05:41;;;;;;;;;;;12.60;52.70;;;;;;4974484;28;20109;-92
2021/04/09 10:08:09;;;;;;;5.97;4.15;;;12.60;52.60;;;;;;4982461;28;20096;-95
2021/04/09 10:10:40;;;;;;;7.40;4.78;;;12.60;52.30;;;;;;4971637;28;20026;-93
2021/04/09 10:13:18;;;;;;;5.43;3.83;;;12.50;52.20;;;;;;4983311;28;20370;-91
2021/04/09 10:15:45;;;;;;;3.95;3.03;;;12.50;52.40;;;;;;4961997;28;20062;-90
2021/04/09 10:18:11;;;;;;;4.53;3.85;;;12.60;52.40;;;;;;4968553;28;20047;-90
2021/04/09 10:20:37;;;;;;;5.43;3.67;;;12.70;52.20;;;;;;4972439;28;20026;-92
2021/04/09 10:23:04;;;;;;;4.60;3.72;;;12.70;52.00;;;;;;4966993;28;20042;-91
2021/04/09 10:25:31;;;;;;;4.50;3.60;;;12.60;51.90;;;;;;4978398;28;20059;-92
2021/04/09 10:27:57;;;;;;;6.88;3.90;;;12.70;51.90;;;;;;4982509;28;20124;-91
2021/04/09 10:30:31;;;;;;;7.07;4.57;;;12.80;51.90;;;;;;4971385;28;20027;-91
2021/04/09 10:33:04;;;;;;;5.45;3.97;;;12.80;51.80;;;;;;4973127;28;20026;-93
2021/04/09 10:35:34;;;;;;;5.35;3.80;;;12.80;51.80;;;;;;4977402;28;20025;-93
2021/04/09 10:38:14;;;;;;;5.80;4.50;;;13.00;52.00;;;;;;4987123;28;20031;-93
2021/04/09 10:40:51;;;;;;;6.10;3.63;;;13.00;51.60;;;;;;4966753;28;20023;-94
2021/04/09 10:43:36;;;;;;;6.30;5.28;;;13.10;51.80;;;;;;4958892;28;20042;-94
2021/04/09 10:46:10;;;;;;;6.00;3.70;;;13.10;51.50;;;;;;4982308;28;20030;-94
2021/04/09 10:48:36;;;;;;;6.28;3.78;;;13.00;51.70;;;;;;4973636;28;20113;-91
2021/04/09 10:51:03;;;;;;;5.68;3.35;;;13.10;51.70;;;;;;4974827;28;20443;-91
2021/04/09 10:53:29;;;;;;;6.55;5.00;;;13.20;51.80;;;;;;4972529;28;20121;-90
2021/04/09 10:56:04;;;;;;;6.18;4.20;;;13.10;51.10;;;;;;4978144;28;20026;-91
2021/04/09 10:58:34;;;;;;;3.92;3.10;;;13.20;51.00;;;;;;4962724;28;20090;-89
2021/04/09 11:00:59;;;;;;;5.07;3.65;;;13.40;51.10;;;;;;4981014;28;20027;-91
2021/04/09 11:03:26;;;;;;;4.93;3.53;;;13.50;50.90;;;;;;4973249;28;20118;-88
2021/04/09 11:05:52;;;;;;;3.88;3.20;;;13.60;50.30;;;;;;4970635;28;20086;-91
2021/04/09 11:08:40;;;;;;;6.40;4.25;;;13.80;50.20;;;;;;4965204;28;20382;-89
2021/04/09 11:11:12;;;;;;;7.60;3.38;;;13.90;49.50;;;;;;4961640;28;20107;-90
2021/04/09 11:13:40;;;;;;;4.80;3.30;;;13.90;49.40;;;;;;4986211;28;20041;-90
2021/04/09 11:16:09;;;;;;;3.10;2.50;;;13.90;48.70;;;;;;4975216;28;20040;-90
2021/04/09 11:18:53;;;;;;;3.67;2.40;;;13.80;49.00;;;;;;4974158;28;20090;-90
2021/04/09 11:21:41;;;;;;;2.55;2.10;;;13.90;48.80;;;;;;4978437;28;20085;-90
2021/04/09 11:24:08;;;;;;;3.10;2.60;;;13.90;48.60;;;;;;4976030;28;20023;-89
2021/04/09 11:26:35;;;;;;;3.70;2.38;;;13.90;48.30;;;;;;4975906;28;20030;-89
2021/04/09 11:29:00;;;;;;;3.05;2.30;;;13.90;48.10;;;;;;4977254;28;20034;-90
2021/04/09 11:31:26;;;;;;;3.00;2.33;;;14.00;48.10;;;;;;4974853;28;20022;-92
2021/04/09 11:34:09;;;;;;;3.35;2.20;;;14.10;48.20;;;;;;4977479;28;20621;-92
2021/04/09 11:36:56;;;;;;;;;;;14.30;47.90;;;;;;4967939;28;20048;-93
2021/04/09 11:39:21;;;;;;;3.22;2.63;;;14.40;47.50;;;;;;4966625;28;19910;-92
2021/04/09 11:41:56;;;;;;;3.88;2.78;;;14.40;46.90;;;;;;4969141;28;20062;-92
2021/04/09 11:44:28;;;;;;;3.78;2.35;;;14.40;47.00;;;;;;4965932;28;20031;-91
2021/04/09 11:47:27;;;;;;;3.13;2.35;;;14.30;47.30;;;;;;4965463;28;20039;-92
2021/04/09 11:50:21;;;;;;;3.90;2.47;;;14.20;47.50;;;;;;4974354;28;20034;-93
2021/04/09 11:53:01;;;;;;;3.30;2.50;;;14.20;47.50;;;;;;4971921;28;20173;-91
2021/04/09 11:55:39;;;;;;;2.33;1.70;;;14.00;47.30;;;;;;4977009;28;20066;-90
2021/04/09 11:58:21;;;;;;;2.45;1.90;;;14.00;48.00;;;;;;4985799;28;20061;-90
2021/04/09 12:01:00;;;;;;;2.58;1.90;;;14.00;48.10;;;;;;4979877;28;20027;-94
2021/04/09 12:03:43;;;;;;;3.15;2.00;;;14.00;48.20;;;;;;4966261;28;20027;-89
2021/04/09 12:06:15;;;;;;;2.20;1.80;;;14.10;48.20;;;;;;4978237;28;20033;-93
2021/04/09 12:08:41;;;;;;;4.28;2.05;;;14.30;48.20;;;;;;4981855;28;20066;-93
2021/04/09 12:11:08;;;;;;;2.15;1.60;;;14.40;47.80;;;;;;4974283;28;20033;-91
2021/04/09 12:13:38;;;;;;;2.65;2.17;;;14.50;47.60;;;;;;4963906;28;20162;-95
2021/04/09 12:16:06;;;;;;;2.75;2.03;;;14.80;47.00;;;;;;4980747;28;20106;-93
2021/04/09 12:18:32;;;;;;;2.75;1.80;;;14.90;45.90;;;;;;4977640;28;20062;-93
2021/04/09 12:20:58;;;;;;;1.83;1.70;;;15.00;45.90;;;;;;4973892;28;20051;-93
2021/04/09 12:23:25;;;;;;;3.90;2.30;;;15.10;45.80;;;;;;4977899;28;20038;-91
2021/04/09 12:25:51;;;;;;;2.40;1.58;;;15.10;45.40;;;;;;4991159;28;20026;-93
2021/04/09 12:28:16;;;;;;;3.47;2.10;;;15.20;45.80;;;;;;4971237;28;20082;-93
2021/04/09 12:30:42;;;;;;;3.05;2.00;;;15.30;45.50;;;;;;4971460;28;20030;-92
2021/04/09 12:33:07;;;;;;;2.60;2.10;;;15.20;44.90;;;;;;4975599;28;20150;-94
2021/04/09 12:35:33;;;;;;;2.20;1.90;;;15.00;44.70;;;;;;4968867;28;20057;-91
2021/04/09 12:37:58;;;;;;;2.33;1.63;;;14.90;44.60;;;;;;4978729;28;20042;-92
2021/04/09 12:40:25;;;;;;;2.38;1.80;;;14.90;44.50;;;;;;4974049;28;20049;-94
2021/04/09 12:42:51;;;;;;;2.38;1.80;;;14.80;44.20;;;;;;4971117;28;20039;-91
2021/04/09 12:45:16;;;;;;;2.28;2.00;;;14.80;44.40;;;;;;4974383;28;20030;-91
2021/04/09 12:47:42;;;;;;;2.10;1.75;;;14.80;44.10;;;;;;4974693;28;20034;-94
2021/04/09 12:50:08;;;;;;;4.75;2.10;;;14.80;44.30;;;;;;4975435;28;20114;-92
2021/04/09 12:52:33;;;;;;;3.58;1.73;;;14.60;43.90;;;;;;4968396;28;20034;-91
2021/04/09 12:54:59;;;;;;;3.53;2.00;;;14.50;43.90;;;;;;4985685;28;20290;-93
2021/04/09 12:57:26;;;;;;;2.33;1.48;;;14.50;43.60;;;;;;4979926;28;20132;-95
2021/04/09 12:59:52;;;;;;;1.90;1.70;;;14.60;44.10;;;;;;4975986;28;20015;-94
2021/04/09 13:02:17;;;;;;;3.55;1.90;;;14.60;43.90;;;;;;4973158;28;20038;-93